Aviation Digital Data Service (ADDS)

Output produced by TAFs form (1201 UTC 29 July 2016)
found at http://www.aviationweather.gov/adds/tafs/
 
KPSF 291159Z 2912/3012 00000KT P6SM BKN050 OVC060 
     TEMPO 2912/2914 3SM BR SCT030 OVC180 
     FM291400 36005KT P6SM BKN015 OVC050 
     FM291900 01007KT P6SM VCSH SCT050 OVC100 
     FM292200 35004KT P6SM SCT100 BKN200 
     FM300600 00000KT 3/4SM BR BKN200